Time;durP1;ratioP1;P1;durP2;ratioP2;P2;SDS_P1;SDS_P2;PMS_P1;PMS_P2;Temp;Humidity;BMP_temperature;BMP_pressure;BME280_temperature;BME280_humidity;BME280_pressure;Samples;Min_cycle;Max_cycle;Signal;HPM_P1;HPM_P2
2021/09/19 00:00:46;;;;;;;0.30;0.30;;;;;;;4.95;70.43;100322.69;6255998;22;20015;-73
2021/09/19 00:03:12;;;;;;;0.40;0.40;;;;;;;4.89;70.75;100317.72;6281260;22;20030;-73
2021/09/19 00:05:38;;;;;;;0.32;0.32;;;;;;;4.94;70.57;100325.47;6256695;22;20030;-72
2021/09/19 00:08:04;;;;;;;0.30;0.30;;;;;;;4.90;70.74;100324.81;6255511;22;20023;-71
2021/09/19 00:10:30;;;;;;;0.40;0.40;;;;;;;4.93;70.38;100324.59;6253160;22;20019;-74
2021/09/19 00:12:55;;;;;;;0.30;0.30;;;;;;;4.94;70.66;100318.31;6277678;22;20504;-72
2021/09/19 00:15:21;;;;;;;0.30;0.30;;;;;;;4.93;70.43;100321.91;6305405;22;20019;-72
2021/09/19 00:17:48;;;;;;;0.40;0.40;;;;;;;4.92;70.79;100322.88;6227336;22;20027;-72
2021/09/19 00:20:14;;;;;;;0.30;0.30;;;;;;;4.90;70.72;100330.19;6278418;22;20114;-76
2021/09/19 00:22:41;;;;;;;0.30;0.30;;;;;;;4.87;70.25;100325.00;6252386;22;20023;-72
2021/09/19 00:25:09;;;;;;;0.40;0.40;;;;;;;4.88;70.14;100332.06;6252872;22;20025;-73
2021/09/19 00:27:34;;;;;;;0.40;0.40;;;;;;;4.90;70.36;100323.94;6252315;22;20122;-73
2021/09/19 00:30:05;;;;;;;0.30;0.30;;;;;;;4.87;70.49;100325.00;6253618;22;20138;-73
2021/09/19 00:32:31;;;;;;;0.30;0.30;;;;;;;4.86;70.23;100333.13;6252405;22;20073;-73
2021/09/19 00:34:57;;;;;;;0.40;0.40;;;;;;;4.82;70.41;100335.13;6305429;22;20015;-71
2021/09/19 00:37:23;;;;;;;0.30;0.30;;;;;;;4.81;70.33;100336.09;6252653;22;20029;-72
2021/09/19 00:39:49;;;;;;;0.38;0.38;;;;;;;4.81;70.12;100333.44;6305590;22;20413;-72
2021/09/19 00:42:15;;;;;;;0.30;0.30;;;;;;;4.75;70.22;100320.41;6252128;22;20341;-71
2021/09/19 00:44:40;;;;;;;0.30;0.30;;;;;;;4.78;70.17;100325.59;6277736;22;20031;-72
2021/09/19 00:47:06;;;;;;;0.40;0.40;;;;;;;4.75;69.82;100326.66;6305212;22;20023;-73
2021/09/19 00:49:32;;;;;;;0.30;0.30;;;;;;;4.75;69.69;100329.34;6278280;22;20015;-71
2021/09/19 00:51:58;;;;;;;0.40;0.40;;;;;;;4.75;69.83;100331.13;6252369;22;20094;-72
2021/09/19 00:54:24;;;;;;;0.30;0.30;;;;;;;4.74;69.79;100329.41;6305386;22;20015;-71
2021/09/19 00:56:54;;;;;;;0.38;0.38;;;;;;;4.71;69.26;100334.97;6252414;22;20030;-73
2021/09/19 00:59:21;;;;;;;0.30;0.30;;;;;;;4.72;69.52;100332.22;6305145;22;20069;-71
2021/09/19 01:01:53;;;;;;;0.32;0.32;;;;;;;4.67;69.47;100344.16;6277622;22;20038;-73
2021/09/19 01:04:20;;;;;;;0.30;0.30;;;;;;;4.67;69.25;100344.16;6305110;22;20015;-74
2021/09/19 01:06:46;;;;;;;0.40;0.40;;;;;;;4.66;69.59;100331.72;6252772;22;20019;-71
2021/09/19 01:09:12;;;;;;;0.40;0.40;;;;;;;4.60;69.58;100333.81;6305279;22;20023;-73
2021/09/19 01:11:40;;;;;;;0.30;0.30;;;;;;;4.57;69.72;100339.38;6278066;22;20097;-72
2021/09/19 01:14:06;;;;;;;0.40;0.40;;;;;;;4.55;69.93;100327.91;6278039;22;20050;-73
2021/09/19 01:16:32;;;;;;;0.40;0.40;;;;;;;4.55;69.69;100330.59;6277853;22;20019;-71
2021/09/19 01:19:00;;;;;;;0.40;0.40;;;;;;;4.56;69.67;100329.63;6304993;22;20066;-72
2021/09/19 01:21:26;;;;;;;0.30;0.30;;;;;;;4.53;69.78;100329.84;6251920;22;20042;-75
2021/09/19 01:24:03;;;;;;;0.40;0.40;;;;;;;4.51;69.81;100326.38;6252073;22;20026;-73
2021/09/19 01:26:30;;;;;;;0.40;0.40;;;;;;;4.52;69.83;100330.78;6277828;22;20423;-72
2021/09/19 01:28:56;;;;;;;0.35;0.35;;;;;;;4.49;69.82;100322.06;6278095;22;20038;-72
2021/09/19 01:31:23;;;;;;;0.30;0.30;;;;;;;4.47;69.92;100316.81;6278429;22;20087;-73
2021/09/19 01:33:49;;;;;;;0.32;0.32;;;;;;;4.46;69.81;100317.78;6278675;22;20038;-74
2021/09/19 01:36:16;;;;;;;0.30;0.30;;;;;;;4.46;69.57;100308.88;6278752;22;20053;-73
2021/09/19 01:38:42;;;;;;;0.40;0.40;;;;;;;4.47;69.76;100307.94;6252710;22;20413;-73
2021/09/19 01:41:08;;;;;;;0.30;0.30;;;;;;;4.46;69.67;100307.06;6252590;22;20445;-72
2021/09/19 01:43:34;;;;;;;0.40;0.40;;;;;;;4.44;69.51;100306.31;6227169;22;20083;-72
2021/09/19 01:46:05;;;;;;;0.40;0.40;;;;;;;4.43;69.73;100299.22;6278481;22;20027;-73
2021/09/19 01:48:40;;;;;;;0.40;0.40;;;;;;;4.44;69.62;100297.41;6279185;22;20050;-74
2021/09/19 01:51:06;;;;;;;0.40;0.40;;;;;;;4.46;69.99;100293.69;6278580;22;20025;-72
2021/09/19 01:53:32;;;;;;;0.30;0.30;;;;;;;4.45;69.73;100297.31;6277491;22;20080;-72
2021/09/19 01:55:58;;;;;;;0.40;0.40;;;;;;;4.42;69.81;100292.13;6277723;22;20174;-71
2021/09/19 01:58:25;;;;;;;0.40;0.40;;;;;;;4.40;69.85;100286.03;6277520;22;20069;-72
2021/09/19 02:00:55;;;;;;;0.40;0.40;;;;;;;4.39;69.64;100286.13;6251759;22;20104;-74
2021/09/19 02:03:21;;;;;;;0.40;0.40;;;;;;;4.36;70.31;100281.84;6252101;22;20019;-72
2021/09/19 02:05:47;;;;;;;0.40;0.40;;;;;;;4.37;69.51;100280.00;6251502;22;20109;-72
2021/09/19 02:08:12;;;;;;;0.40;0.40;;;;;;;4.40;70.03;100278.00;6251700;22;20449;-72
2021/09/19 02:10:38;;;;;;;0.40;0.40;;;;;;;4.36;69.90;100265.78;6276629;22;20112;-74
2021/09/19 02:13:04;;;;;;;0.30;0.30;;;;;;;4.36;69.04;100265.78;6304331;22;20116;-73
2021/09/19 02:15:30;;;;;;;0.40;0.40;;;;;;;4.39;69.39;100264.69;6277301;22;20019;-73
2021/09/19 02:17:56;;;;;;;0.30;0.30;;;;;;;4.36;69.24;100271.13;6276914;22;20025;-72
2021/09/19 02:20:21;;;;;;;0.30;0.30;;;;;;;4.36;69.09;100281.84;6305011;22;20054;-74
2021/09/19 02:22:48;;;;;;;0.40;0.40;;;;;;;4.35;69.19;100269.38;6251877;22;20023;-73
2021/09/19 02:25:14;;;;;;;0.40;0.40;;;;;;;4.35;68.99;100272.06;6277115;22;20360;-73
2021/09/19 02:27:40;;;;;;;0.40;0.40;;;;;;;4.35;69.58;100277.41;6276603;22;20019;-72
2021/09/19 02:30:09;;;;;;;0.40;0.40;;;;;;;4.33;69.24;100271.31;6251347;22;20462;-72
2021/09/19 02:32:35;;;;;;;0.40;0.40;;;;;;;4.30;69.24;100261.66;6304407;22;20023;-73
2021/09/19 02:35:01;;;;;;;0.35;0.35;;;;;;;4.35;69.16;100272.06;6304512;22;20022;-73
2021/09/19 02:37:27;;;;;;;0.40;0.40;;;;;;;4.35;68.72;100269.38;6251645;22;20192;-71
2021/09/19 02:39:53;;;;;;;0.40;0.40;;;;;;;4.33;68.93;100279.34;6276735;22;20037;-72
2021/09/19 02:42:19;;;;;;;0.30;0.30;;;;;;;4.32;69.36;100275.81;6250837;22;20452;-74
2021/09/19 02:44:45;;;;;;;0.40;0.40;;;;;;;4.31;69.46;100278.56;6251513;22;20027;-71
2021/09/19 02:47:11;;;;;;;0.30;0.30;;;;;;;4.31;69.51;100262.50;6278083;22;20369;-72
2021/09/19 02:49:37;;;;;;;0.40;0.40;;;;;;;4.27;69.54;100261.84;6278426;22;20019;-72
2021/09/19 02:52:03;;;;;;;0.40;0.40;;;;;;;4.32;69.44;100272.28;6251772;22;20031;-72
2021/09/19 02:54:28;;;;;;;0.40;0.40;;;;;;;4.30;69.44;100282.22;6305626;22;20111;-72
2021/09/19 02:56:54;;;;;;;0.30;0.30;;;;;;;4.28;69.92;100279.66;6252246;22;20046;-71
2021/09/19 02:59:20;;;;;;;0.40;0.40;;;;;;;4.30;69.85;100276.84;6306084;22;20023;-73
2021/09/19 03:01:46;;;;;;;0.40;0.40;;;;;;;4.29;69.84;100280.50;6252127;22;20506;-71
2021/09/19 03:04:12;;;;;;;0.32;0.32;;;;;;;4.26;70.17;100264.63;6251981;22;20019;-73
2021/09/19 03:06:38;;;;;;;0.32;0.32;;;;;;;4.25;70.22;100263.78;6278097;22;20023;-73
2021/09/19 03:09:04;;;;;;;0.40;0.40;;;;;;;4.29;70.60;100257.28;6278612;22;20133;-73
2021/09/19 03:11:30;;;;;;;0.40;0.40;;;;;;;4.25;70.21;100252.22;6279052;22;20452;-73
2021/09/19 03:13:56;;;;;;;0.40;0.40;;;;;;;4.28;70.74;100252.03;6279395;22;20403;-75
2021/09/19 03:16:22;;;;;;;0.35;0.35;;;;;;;4.26;70.56;100248.56;6279016;22;20019;-73
2021/09/19 03:18:48;;;;;;;0.40;0.40;;;;;;;4.27;70.85;100266.34;6254732;22;20061;-72
2021/09/19 03:21:14;;;;;;;0.30;0.30;;;;;;;4.28;70.84;100257.38;6230421;22;20114;-73
2021/09/19 03:23:40;;;;;;;0.40;0.40;;;;;;;4.26;70.95;100248.56;6255561;22;20199;-72
2021/09/19 03:26:06;;;;;;;0.40;0.40;;;;;;;4.21;70.74;100253.38;6255218;22;20458;-72
2021/09/19 03:28:32;;;;;;;0.40;0.40;;;;;;;4.27;70.83;100250.28;6279231;22;20352;-72
2021/09/19 03:30:58;;;;;;;0.30;0.30;;;;;;;4.26;70.78;100256.59;6306416;22;20026;-72
2021/09/19 03:33:24;;;;;;;0.40;0.40;;;;;;;4.22;71.23;100247.03;6306075;22;20030;-72
2021/09/19 03:35:50;;;;;;;0.40;0.40;;;;;;;4.23;71.01;100244.25;6278851;22;20072;-73
2021/09/19 03:38:16;;;;;;;0.40;0.40;;;;;;;4.24;71.13;100258.50;6279592;22;20015;-73
2021/09/19 03:40:42;;;;;;;0.40;0.40;;;;;;;4.20;71.09;100248.94;6280931;22;20345;-73
2021/09/19 03:43:08;;;;;;;0.30;0.30;;;;;;;4.15;71.09;100245.72;6308954;22;20023;-73
2021/09/19 03:45:33;;;;;;;0.30;0.30;;;;;;;4.20;71.46;100257.81;6254563;22;20065;-73
2021/09/19 03:48:04;;;;;;;0.40;0.40;;;;;;;4.24;71.51;100258.50;6279311;22;20043;-72
2021/09/19 03:50:31;;;;;;;0.40;0.40;;;;;;;4.23;71.32;100264.81;6279424;22;20015;-73
2021/09/19 03:52:57;;;;;;;0.40;0.40;;;;;;;4.24;71.49;100258.50;6278640;22;20096;-73
2021/09/19 03:55:23;;;;;;;0.40;0.40;;;;;;;4.23;71.32;100267.50;6253190;22;20093;-72
2021/09/19 03:57:50;;;;;;;0.40;0.40;;;;;;;4.28;71.65;100265.41;6278894;22;20026;-75
2021/09/19 04:00:17;;;;;;;0.40;0.40;;;;;;;4.23;71.68;100263.00;6278596;22;20015;-74
2021/09/19 04:02:42;;;;;;;0.40;0.40;;;;;;;4.24;71.57;100266.53;6277955;22;20361;-73
2021/09/19 04:05:10;;;;;;;0.40;0.40;;;;;;;4.25;71.31;100266.44;6277910;22;20499;-72
2021/09/19 04:07:36;;;;;;;0.40;0.40;;;;;;;4.23;71.45;100264.81;6252462;22;20106;-72
2021/09/19 04:10:03;;;;;;;0.40;0.40;;;;;;;4.29;71.52;100267.13;6252726;22;20027;-74
2021/09/19 04:12:29;;;;;;;0.40;0.40;;;;;;;4.28;71.86;100276.13;6278263;22;20332;-74
2021/09/19 04:14:55;;;;;;;0.40;0.40;;;;;;;4.29;71.24;100277.81;6305814;22;20030;-74
2021/09/19 04:17:21;;;;;;;0.40;0.40;;;;;;;4.32;71.40;100283.00;6278528;22;20142;-73
2021/09/19 04:19:46;;;;;;;0.40;0.40;;;;;;;4.32;71.49;100281.16;6279045;22;20069;-75
2021/09/19 04:22:12;;;;;;;0.40;0.40;;;;;;;4.33;71.39;100276.66;6278241;22;20043;-74
2021/09/19 04:24:39;;;;;;;0.40;0.40;;;;;;;4.35;71.73;100280.09;6278729;22;20019;-73
2021/09/19 04:27:06;;;;;;;0.40;0.40;;;;;;;4.35;71.81;100269.38;6278582;22;20015;-75
2021/09/19 04:29:34;;;;;;;0.40;0.40;;;;;;;4.39;71.44;100270.06;6252640;22;20020;-74
2021/09/19 04:32:00;;;;;;;0.40;0.40;;;;;;;4.42;71.54;100281.44;6253006;22;20027;-73
2021/09/19 04:34:26;;;;;;;0.40;0.40;;;;;;;4.43;71.45;100272.47;6305913;22;20019;-75
2021/09/19 04:36:52;;;;;;;0.40;0.40;;;;;;;4.43;71.24;100272.47;6278184;22;20019;-73
2021/09/19 04:39:18;;;;;;;0.40;0.40;;;;;;;4.43;71.84;100272.47;6305204;22;20023;-70
2021/09/19 04:41:43;;;;;;;0.40;0.40;;;;;;;4.55;71.68;100286.88;6252659;22;20019;-71
2021/09/19 04:44:09;;;;;;;0.40;0.40;;;;;;;4.53;71.23;100276.28;6278244;22;20400;-71
2021/09/19 04:46:35;;;;;;;0.40;0.40;;;;;;;4.49;71.49;100277.41;6278154;22;20019;-71
2021/09/19 04:49:01;;;;;;;0.40;0.40;;;;;;;4.54;71.31;100275.31;6252650;22;20383;-70
2021/09/19 04:51:27;;;;;;;0.40;0.40;;;;;;;4.56;70.89;100268.03;6227106;22;20106;-73
2021/09/19 04:53:52;;;;;;;0.40;0.40;;;;;;;4.60;70.95;100266.88;6278852;22;20437;-72
2021/09/19 04:56:18;;;;;;;0.40;0.40;;;;;;;4.62;70.93;100260.59;6278569;22;20088;-70
2021/09/19 04:58:44;;;;;;;0.40;0.40;;;;;;;4.67;70.99;100274.53;6252755;22;20050;-74
2021/09/19 05:01:10;;;;;;;0.43;0.43;;;;;;;4.71;70.67;100276.03;6253360;22;20073;-73
2021/09/19 05:03:36;;;;;;;0.40;0.40;;;;;;;4.81;70.43;100279.84;6277944;22;20033;-71
2021/09/19 05:06:01;;;;;;;0.40;0.40;;;;;;;4.80;70.30;100275.47;6305624;22;20042;-73
2021/09/19 05:08:27;;;;;;;0.40;0.40;;;;;;;4.86;70.47;100282.22;6252537;22;20023;-70
2021/09/19 05:10:53;;;;;;;0.40;0.40;;;;;;;4.93;70.27;100271.00;6252964;22;20109;-73
2021/09/19 05:13:19;;;;;;;0.40;0.40;;;;;;;4.93;70.17;100271.00;6252966;22;20023;-73
2021/09/19 05:15:46;;;;;;;0.45;0.45;;;;;;;4.95;70.06;100279.81;6278339;22;20388;-72
2021/09/19 05:18:12;;;;;;;0.40;0.40;;;;;;;5.05;70.23;100272.91;6252142;22;20452;-73
2021/09/19 05:20:38;;;;;;;0.40;0.40;;;;;;;5.03;69.84;100277.50;6305534;22;20027;-72
2021/09/19 05:23:04;;;;;;;0.40;0.40;;;;;;;5.07;69.65;100272.78;6252012;22;20524;-74
2021/09/19 05:25:30;;;;;;;0.40;0.40;;;;;;;5.04;69.31;100281.88;6251887;22;20031;-73
2021/09/19 05:27:55;;;;;;;0.40;0.40;;;;;;;5.11;69.61;100276.13;6252877;22;20302;-73
2021/09/19 05:30:22;;;;;;;0.40;0.40;;;;;;;5.15;69.66;100275.81;6227589;22;20019;-72
2021/09/19 05:32:48;;;;;;;0.40;0.40;;;;;;;5.15;69.39;100269.59;6277898;22;20051;-73
2021/09/19 05:35:14;;;;;;;0.40;0.40;;;;;;;5.19;68.99;100271.13;6227116;22;20092;-72
2021/09/19 05:37:40;;;;;;;0.40;0.40;;;;;;;5.19;69.23;100281.84;6305387;22;20017;-72
2021/09/19 05:40:08;;;;;;;0.40;0.40;;;;;;;5.19;68.81;100276.47;6277862;22;20081;-73
2021/09/19 05:42:34;;;;;;;0.40;0.40;;;;;;;5.25;69.08;100265.34;6251421;22;20077;-71
2021/09/19 05:45:00;;;;;;;0.40;0.40;;;;;;;5.37;68.84;100259.16;6251760;22;20076;-74
2021/09/19 05:47:26;;;;;;;0.40;0.40;;;;;;;5.41;68.15;100267.88;6226628;22;20109;-74
2021/09/19 05:49:51;;;;;;;0.40;0.40;;;;;;;5.35;68.48;100277.19;6277835;22;20050;-75
2021/09/19 05:52:17;;;;;;;0.40;0.40;;;;;;;5.40;68.50;100267.00;6252282;22;20522;-73
2021/09/19 05:54:43;;;;;;;0.40;0.40;;;;;;;5.43;68.32;100264.13;6277520;22;20042;-72
2021/09/19 05:57:09;;;;;;;0.43;0.43;;;;;;;5.39;68.67;100254.56;6252320;22;20038;-72
2021/09/19 05:59:34;;;;;;;0.40;0.40;;;;;;;5.45;68.42;100272.94;6252201;22;20418;-73
2021/09/19 06:02:00;;;;;;;0.40;0.40;;;;;;;5.46;68.10;100277.34;6252296;22;20058;-74
2021/09/19 06:04:26;;;;;;;0.40;0.40;;;;;;;5.44;68.27;100270.34;6278030;22;20019;-75
2021/09/19 06:06:52;;;;;;;0.40;0.40;;;;;;;5.39;67.78;100277.84;6226574;22;20326;-74
2021/09/19 06:09:18;;;;;;;0.40;0.40;;;;;;;5.42;67.84;100267.78;6226544;22;20030;-74
2021/09/19 06:11:44;;;;;;;0.40;0.40;;;;;;;5.46;68.29;100277.34;6226515;22;20019;-74
2021/09/19 06:14:10;;;;;;;0.40;0.40;;;;;;;5.43;67.94;100274.00;6251951;22;20019;-74
2021/09/19 06:16:36;;;;;;;0.40;0.40;;;;;;;5.50;68.03;100270.78;6277372;22;20457;-74
2021/09/19 06:19:03;;;;;;;0.40;0.40;;;;;;;5.54;67.67;100274.13;6277196;22;20026;-74
2021/09/19 06:21:29;;;;;;;0.40;0.40;;;;;;;5.53;68.07;100275.94;6305129;22;20027;-75
2021/09/19 06:23:55;;;;;;;0.50;0.50;;;;;;;5.62;67.26;100273.59;6226330;22;20480;-74
2021/09/19 06:26:21;;;;;;;0.40;0.40;;;;;;;5.65;67.42;100274.25;6226556;22;20047;-74
2021/09/19 06:28:47;;;;;;;0.40;0.40;;;;;;;5.69;66.75;100272.22;6304822;22;20011;-74
2021/09/19 06:31:14;;;;;;;0.40;0.40;;;;;;;5.66;67.08;100259.03;6249135;22;20126;-74
2021/09/19 06:33:41;;;;;;;0.40;0.40;;;;;;;5.86;66.66;100252.28;6244687;22;20378;-74
2021/09/19 06:36:07;;;;;;;0.40;0.40;;;;;;;5.93;66.42;100251.78;6275608;22;20357;-74
2021/09/19 06:38:33;;;;;;;0.50;0.50;;;;;;;6.06;65.96;100257.16;6275600;22;20046;-76
2021/09/19 06:40:58;;;;;;;0.40;0.40;;;;;;;6.04;65.97;100254.59;6225138;22;20015;-76
2021/09/19 06:43:24;;;;;;;0.40;0.40;;;;;;;6.15;65.62;100250.28;6276995;22;20102;-79
2021/09/19 06:45:50;;;;;;;0.40;0.40;;;;;;;6.22;65.47;100256.94;6252336;22;20030;-77
2021/09/19 06:48:16;;;;;;;0.40;0.40;;;;;;;6.19;65.82;100251.78;6252589;22;20019;-78
2021/09/19 06:50:42;;;;;;;0.40;0.40;;;;;;;6.34;65.10;100245.31;6278455;22;20402;-80
2021/09/19 06:53:08;;;;;;;0.40;0.40;;;;;;;6.40;64.88;100244.91;6225402;22;20021;-74
2021/09/19 06:55:34;;;;;;;0.40;0.40;;;;;;;6.51;65.15;100247.66;6225259;22;20309;-74
2021/09/19 06:57:59;;;;;;;0.40;0.40;;;;;;;6.47;64.59;100248.84;6250442;22;20419;-74
2021/09/19 07:00:26;;;;;;;0.40;0.40;;;;;;;6.50;64.96;100245.94;6225774;22;20063;-74
2021/09/19 07:02:52;;;;;;;0.40;0.40;;;;;;;6.61;64.80;100249.66;6224930;22;20027;-74
2021/09/19 07:05:18;;;;;;;0.40;0.40;;;;;;;6.62;64.70;100254.06;6276337;22;20116;-74
2021/09/19 07:07:44;;;;;;;0.40;0.40;;;;;;;6.61;64.40;100246.97;6275618;22;20110;-75
2021/09/19 07:10:11;;;;;;;0.40;0.40;;;;;;;6.72;64.08;100249.75;6251143;22;20085;-73
2021/09/19 07:12:36;;;;;;;0.40;0.40;;;;;;;6.67;64.05;100244.72;6252632;22;20452;-74
2021/09/19 07:15:04;;;;;;;0.40;0.40;;;;;;;6.75;64.11;100228.03;6250185;22;20453;-74
2021/09/19 07:17:30;;;;;;;0.47;0.47;;;;;;;6.77;63.90;100234.16;6275881;22;20102;-76
2021/09/19 07:19:56;;;;;;;0.40;0.40;;;;;;;6.86;63.80;100241.53;6275856;22;20472;-77
2021/09/19 07:22:22;;;;;;;0.50;0.50;;;;;;;6.96;63.74;100231.81;6273884;22;20028;-79
2021/09/19 07:24:48;;;;;;;0.40;0.40;;;;;;;7.07;62.98;100233.72;6248042;22;20028;-77
2021/09/19 07:27:14;;;;;;;0.50;0.50;;;;;;;7.20;62.83;100228.25;6222705;22;20449;-73
2021/09/19 07:29:40;;;;;;;0.50;0.50;;;;;;;7.30;62.67;100228.44;6249299;22;20080;-76
2021/09/19 07:32:07;;;;;;;0.40;0.40;;;;;;;7.35;61.89;100234.31;6301039;22;20446;-70
2021/09/19 07:34:36;;;;;;;0.40;0.40;;;;;;;7.32;61.88;100221.13;6223178;22;20019;-81
2021/09/19 07:37:04;;;;;;;0.40;0.40;;;;;;;7.25;62.34;100231.47;6223537;22;20375;-79
2021/09/19 07:39:30;;;;;;;0.40;0.40;;;;;;;7.32;62.20;100227.34;6248272;22;20475;-79
2021/09/19 07:41:56;;;;;;;0.40;0.40;;;;;;;7.39;62.18;100222.38;6273594;22;20015;-75
2021/09/19 07:44:23;;;;;;;0.40;0.40;;;;;;;7.43;62.01;100219.31;6249743;22;20027;-75
2021/09/19 07:46:50;;;;;;;0.45;0.45;;;;;;;7.50;61.56;100211.66;6274599;22;20083;-76
2021/09/19 07:49:18;;;;;;;0.40;0.40;;;;;;;7.48;61.78;100206.38;6273961;22;20104;-74
2021/09/19 07:51:44;;;;;;;0.50;0.50;;;;;;;7.63;61.61;100192.72;6226470;22;20011;-73
2021/09/19 07:54:10;;;;;;;0.50;0.50;;;;;;;7.72;60.95;100198.25;6227097;22;20022;-74
2021/09/19 08:04:34;;;;;;;0.40;0.40;;;;;;;7.72;61.21;100192.84;6303793;22;20027;-73
2021/09/19 08:06:59;;;;;;;0.40;0.40;;;;;;;7.54;61.61;100193.44;6253875;22;20035;-72
2021/09/19 08:09:25;;;;;;;0.40;0.40;;;;;;;7.54;61.68;100196.13;6229694;22;20019;-73
2021/09/19 08:11:53;;;;;;;0.40;0.40;;;;;;;7.43;62.26;100194.25;6254560;22;20053;-73
2021/09/19 08:14:18;;;;;;;0.40;0.40;;;;;;;7.39;62.14;100201.72;6253577;22;20492;-73
2021/09/19 08:16:44;;;;;;;0.40;0.40;;;;;;;7.38;62.10;100202.66;6202982;22;20094;-73
2021/09/19 08:19:10;;;;;;;0.40;0.40;;;;;;;7.36;62.07;100201.09;6253184;22;20025;-73
2021/09/19 08:37:05;;;;;;;0.40;0.40;;;;;;;7.44;62.07;100183.38;6307144;22;20038;-71
2021/09/19 08:39:31;;;;;;;0.40;0.40;;;;;;;7.40;61.70;100187.28;6253783;22;20070;-72
2021/09/19 08:41:57;;;;;;;0.40;0.40;;;;;;;7.46;61.92;100189.50;6253179;22;20011;-74
2021/09/19 08:44:23;;;;;;;0.40;0.40;;;;;;;7.56;61.48;100196.84;6253591;22;20356;-72
2021/09/19 08:46:49;;;;;;;0.40;0.40;;;;;;;7.63;61.30;100198.09;6202844;22;20027;-72
2021/09/19 08:49:18;;;;;;;0.38;0.38;;;;;;;7.68;60.74;100186.00;6253177;22;20097;-72
2021/09/19 08:51:45;;;;;;;0.40;0.40;;;;;;;7.83;60.61;100204.63;6278875;22;20022;-75
2021/09/19 08:54:11;;;;;;;0.40;0.40;;;;;;;7.83;59.73;100192.03;6278320;22;20106;-72
2021/09/19 08:56:36;;;;;;;0.40;0.40;;;;;;;7.93;59.40;100201.09;6227118;22;20046;-72
2021/09/19 08:59:03;;;;;;;0.47;0.47;;;;;;;7.86;59.07;100194.47;6253312;22;20509;-72
2021/09/19 09:01:28;;;;;;;0.40;0.40;;;;;;;7.83;59.31;100200.09;6305692;22;20105;-72
2021/09/19 09:04:05;;;;;;;0.40;0.40;;;;;;;7.81;59.22;100206.56;6226916;22;20074;-72
2021/09/19 09:06:38;;;;;;;0.40;0.40;;;;;;;7.80;59.45;100194.94;6278046;22;20083;-72
2021/09/19 09:09:14;;;;;;;;;;;;;;;7.84;59.50;100207.19;6306452;22;20031;-72
2021/09/19 09:11:40;;;;;;;0.40;0.40;;;;;;;7.83;59.62;100200.09;6278262;22;19922;-72
2021/09/19 09:14:06;;;;;;;0.40;0.40;;;;;;;7.69;59.77;100203.84;6305311;22;20018;-73
2021/09/19 09:16:34;;;;;;;0.40;0.40;;;;;;;7.65;60.09;100204.22;6251939;22;20011;-72
2021/09/19 09:18:59;;;;;;;0.40;0.40;;;;;;;7.71;60.04;100206.41;6252679;22;20183;-72
2021/09/19 09:21:29;;;;;;;0.40;0.40;;;;;;;7.75;59.83;100213.28;6252039;22;20019;-72
2021/09/19 09:23:57;;;;;;;0.32;0.32;;;;;;;7.69;60.20;100208.38;6277958;22;20023;-72
2021/09/19 09:26:31;;;;;;;0.40;0.40;;;;;;;7.72;60.04;100202.78;6251940;22;20030;-72
2021/09/19 09:29:04;;;;;;;0.35;0.35;;;;;;;7.75;60.11;100202.50;6305592;22;20086;-73
2021/09/19 09:31:31;;;;;;;0.40;0.40;;;;;;;7.78;60.26;100209.50;6252489;22;20031;-72
2021/09/19 09:34:03;;;;;;;0.30;0.30;;;;;;;7.79;59.89;100195.94;6278378;22;20475;-72
2021/09/19 09:39:22;;;;;;;0.40;0.40;;;;;;;7.76;59.58;100214.16;6306932;22;20149;-72
2021/09/19 09:41:48;;;;;;;0.40;0.40;;;;;;;7.77;59.58;100205.94;6252632;22;20011;-73
2021/09/19 09:44:41;;;;;;;0.40;0.40;;;;;;;7.80;60.01;100197.63;6227309;22;20019;-72
2021/09/19 09:47:12;;;;;;;0.40;0.40;;;;;;;7.86;60.02;100205.25;6227445;22;20019;-72
2021/09/19 09:49:59;;;;;;;0.30;0.30;;;;;;;7.79;59.78;100203.13;6252082;22;20023;-72
2021/09/19 09:52:30;;;;;;;0.30;0.30;;;;;;;7.71;60.35;100196.53;6201803;22;20077;-72
2021/09/19 09:55:02;;;;;;;0.30;0.30;;;;;;;7.73;60.07;100188.31;6251637;22;20023;-72
2021/09/19 09:57:34;;;;;;;0.30;0.30;;;;;;;7.78;60.25;100191.50;6277845;22;20015;-72
2021/09/19 10:00:02;;;;;;;0.40;0.40;;;;;;;7.86;60.10;100183.72;6277502;22;20050;-73
2021/09/19 10:02:31;;;;;;;0.40;0.40;;;;;;;7.96;59.99;100184.66;6253004;22;20054;-72
2021/09/19 10:14:50;;;;;;;0.30;0.30;;;;;;;8.09;59.69;100162.19;6298596;22;20537;-76
2021/09/19 10:17:21;;;;;;;0.30;0.30;;;;;;;8.07;59.90;100174.88;6248852;22;20349;-74
2021/09/19 10:19:47;;;;;;;0.30;0.30;;;;;;;8.03;59.62;100159.97;6275140;22;20023;-73
2021/09/19 10:22:47;;;;;;;0.30;0.30;;;;;;;8.09;59.42;100151.41;6249895;22;20019;-76
2021/09/19 10:25:26;;;;;;;0.32;0.32;;;;;;;8.05;59.37;100160.72;6193079;22;20027;-72
2021/09/19 10:28:30;;;;;;;0.40;0.40;;;;;;;8.06;59.58;100157.03;6250132;22;20029;-79
2021/09/19 10:31:08;;;;;;;0.40;0.40;;;;;;;8.04;59.41;100153.59;6274891;22;20069;-77
2021/09/19 10:33:34;;;;;;;0.30;0.30;;;;;;;8.05;59.41;100155.31;6249439;22;20019;-76
2021/09/19 10:36:01;;;;;;;0.40;0.40;;;;;;;8.03;59.13;100146.50;6274924;22;20030;-81
2021/09/19 10:38:35;;;;;;;0.30;0.30;;;;;;;8.05;59.02;100147.25;6273615;22;20088;-76
2021/09/19 10:41:21;;;;;;;0.30;0.30;;;;;;;8.03;59.01;100141.97;6274266;22;20023;-77
2021/09/19 10:43:55;;;;;;;0.30;0.30;;;;;;;7.99;59.37;100137.81;6274081;22;20049;-78
2021/09/19 10:46:36;;;;;;;;;;;;;;;8.05;59.07;100133.78;6249185;22;20058;-77
2021/09/19 10:49:18;;;;;;;0.30;0.30;;;;;;;8.03;59.43;100141.13;6249465;22;19972;-75
2021/09/19 10:51:59;;;;;;;0.30;0.30;;;;;;;8.10;59.29;100136.97;6274217;22;20104;-77
2021/09/19 10:54:51;;;;;;;0.30;0.30;;;;;;;8.08;58.81;100137.09;6223214;22;20124;-77
2021/09/19 10:57:19;;;;;;;0.30;0.30;;;;;;;8.11;58.52;100133.28;6272983;22;20128;-76
2021/09/19 11:00:20;;;;;;;0.30;0.30;;;;;;;8.07;58.83;100126.44;6273686;22;20023;-77
2021/09/19 11:03:09;;;;;;;0.30;0.30;;;;;;;8.10;59.15;100137.81;6224120;22;20034;-77
2021/09/19 11:05:42;;;;;;;0.30;0.30;;;;;;;8.08;59.12;100129.00;6249659;22;20030;-76
2021/09/19 11:08:10;;;;;;;0.30;0.30;;;;;;;8.13;58.61;100136.72;6275828;22;20015;-76
2021/09/19 11:11:02;;;;;;;0.30;0.30;;;;;;;8.11;58.63;100139.50;6249918;22;20019;-76
2021/09/19 11:13:41;;;;;;;0.30;0.30;;;;;;;8.18;59.19;100135.34;6250635;22;20083;-76
2021/09/19 11:16:07;;;;;;;0.30;0.30;;;;;;;8.20;58.83;100144.16;6275538;22;20026;-74
2021/09/19 11:19:00;;;;;;;0.30;0.30;;;;;;;8.17;58.38;100138.16;6250115;22;20023;-75
2021/09/19 11:21:26;;;;;;;0.30;0.30;;;;;;;8.12;58.83;100129.63;6276222;22;20046;-73
2021/09/19 11:24:00;;;;;;;0.30;0.30;;;;;;;8.14;59.25;100116.88;6250816;22;20087;-73
2021/09/19 11:26:30;;;;;;;0.30;0.30;;;;;;;8.13;58.84;100109.78;6250855;22;20027;-72
2021/09/19 11:28:59;;;;;;;0.30;0.30;;;;;;;8.25;58.59;100108.78;6302618;22;20111;-72
2021/09/19 11:31:25;;;;;;;0.30;0.30;;;;;;;8.20;58.64;100105.63;6226498;22;20027;-71
2021/09/19 11:33:51;;;;;;;0.30;0.30;;;;;;;8.24;59.23;100096.28;6226650;22;20026;-71
2021/09/19 11:36:20;;;;;;;0.30;0.30;;;;;;;8.18;58.38;100110.25;6276986;22;20050;-71
2021/09/19 11:38:52;;;;;;;0.30;0.30;;;;;;;8.19;58.48;100109.25;6251162;22;20020;-71
2021/09/19 11:41:19;;;;;;;0.30;0.30;;;;;;;8.21;58.36;100107.31;6253073;22;20023;-72
2021/09/19 11:46:54;;;;;;;0.30;0.30;;;;;;;8.16;59.24;100098.78;6305676;22;20479;-72
2021/09/19 11:49:20;;;;;;;0.30;0.30;;;;;;;8.15;58.63;100094.34;6278802;22;20117;-72
2021/09/19 11:51:48;;;;;;;0.30;0.30;;;;;;;8.11;59.32;100098.25;6254373;22;20089;-73
2021/09/19 11:54:16;;;;;;;0.30;0.30;;;;;;;8.07;59.19;100094.97;6228082;22;20019;-72
2021/09/19 11:56:45;;;;;;;0.30;0.30;;;;;;;8.06;59.42;100089.72;6279221;22;20015;-71
2021/09/19 11:59:13;;;;;;;0.30;0.30;;;;;;;8.07;60.43;100099.50;6306911;22;20102;-71
2021/09/19 12:08:52;;;;;;;0.30;0.30;;;;;;;8.13;59.38;100094.47;6305131;22;20051;-71
2021/09/19 12:11:17;;;;;;;0.30;0.30;;;;;;;8.20;59.34;100089.44;6228170;22;20030;-71
2021/09/19 12:13:47;;;;;;;0.30;0.30;;;;;;;8.12;59.77;100081.16;6228563;22;20019;-71
2021/09/19 12:16:22;;;;;;;0.30;0.30;;;;;;;8.09;59.44;100092.16;6253709;22;20057;-71
2021/09/19 12:18:50;;;;;;;0.30;0.30;;;;;;;8.08;60.00;100079.66;6228404;22;20019;-71
2021/09/19 12:21:21;;;;;;;0.30;0.30;;;;;;;8.13;59.54;100077.47;6228861;22;20077;-71
2021/09/19 12:23:50;;;;;;;0.30;0.30;;;;;;;8.13;59.72;100077.47;6254082;22;20043;-71